sensor_id;sensor_type;location;lat;lon;timestamp;P1;durP1;ratioP1;P2;durP2;ratioP2
4563;SDS011;2294;51.818;8.484;2023-05-09T00:01:23;7.47;;;6.57;;
4563;SDS011;2294;51.818;8.484;2023-05-09T00:03:51;7.43;;;6.70;;
4563;SDS011;2294;51.818;8.484;2023-05-09T00:06:18;8.43;;;7.03;;
4563;SDS011;2294;51.818;8.484;2023-05-09T00:08:45;12.33;;;7.70;;
4563;SDS011;2294;51.818;8.484;2023-05-09T00:11:12;18.00;;;8.40;;
4563;SDS011;2294;51.818;8.484;2023-05-09T00:13:40;12.33;;;8.70;;
4563;SDS011;2294;51.818;8.484;2023-05-09T00:16:08;9.90;;;8.27;;
4563;SDS011;2294;51.818;8.484;2023-05-09T00:18:35;10.63;;;8.73;;
4563;SDS011;2294;51.818;8.484;2023-05-09T00:21:06;8.23;;;7.13;;
4563;SDS011;2294;51.818;8.484;2023-05-09T00:23:33;9.17;;;7.97;;
4563;SDS011;2294;51.818;8.484;2023-05-09T00:25:59;9.40;;;7.37;;
4563;SDS011;2294;51.818;8.484;2023-05-09T00:28:26;12.50;;;7.93;;
4563;SDS011;2294;51.818;8.484;2023-05-09T00:30:55;15.20;;;7.87;;
4563;SDS011;2294;51.818;8.484;2023-05-09T00:33:22;12.07;;;8.10;;
4563;SDS011;2294;51.818;8.484;2023-05-09T00:35:50;9.97;;;7.70;;
4563;SDS011;2294;51.818;8.484;2023-05-09T00:38:17;11.43;;;8.70;;
4563;SDS011;2294;51.818;8.484;2023-05-09T00:40:44;11.50;;;8.03;;
4563;SDS011;2294;51.818;8.484;2023-05-09T00:43:11;10.60;;;8.10;;
4563;SDS011;2294;51.818;8.484;2023-05-09T00:45:38;14.10;;;8.33;;
4563;SDS011;2294;51.818;8.484;2023-05-09T00:48:06;9.03;;;6.80;;
4563;SDS011;2294;51.818;8.484;2023-05-09T00:50:34;10.77;;;8.17;;
4563;SDS011;2294;51.818;8.484;2023-05-09T00:53:02;9.50;;;7.33;;
4563;SDS011;2294;51.818;8.484;2023-05-09T00:55:29;16.23;;;7.90;;
4563;SDS011;2294;51.818;8.484;2023-05-09T00:57:57;11.40;;;8.30;;
4563;SDS011;2294;51.818;8.484;2023-05-09T01:00:24;10.23;;;7.40;;
4563;SDS011;2294;51.818;8.484;2023-05-09T01:02:51;9.60;;;7.90;;
4563;SDS011;2294;51.818;8.484;2023-05-09T01:05:21;7.57;;;6.53;;
4563;SDS011;2294;51.818;8.484;2023-05-09T01:07:55;10.00;;;6.93;;
4563;SDS011;2294;51.818;8.484;2023-05-09T01:10:34;10.60;;;7.77;;
4563;SDS011;2294;51.818;8.484;2023-05-09T01:13:08;12.07;;;8.40;;
4563;SDS011;2294;51.818;8.484;2023-05-09T01:15:42;8.63;;;7.30;;
4563;SDS011;2294;51.818;8.484;2023-05-09T01:18:16;10.30;;;7.77;;
4563;SDS011;2294;51.818;8.484;2023-05-09T01:20:53;10.30;;;8.53;;
4563;SDS011;2294;51.818;8.484;2023-05-09T01:26:54;9.00;;;7.23;;
4563;SDS011;2294;51.818;8.484;2023-05-09T01:29:41;10.73;;;8.07;;
4563;SDS011;2294;51.818;8.484;2023-05-09T01:32:12;9.77;;;7.50;;
4563;SDS011;2294;51.818;8.484;2023-05-09T01:34:42;10.20;;;7.80;;
4563;SDS011;2294;51.818;8.484;2023-05-09T01:37:10;11.17;;;8.37;;
4563;SDS011;2294;51.818;8.484;2023-05-09T01:39:41;9.23;;;6.93;;
4563;SDS011;2294;51.818;8.484;2023-05-09T01:42:11;9.60;;;7.90;;
4563;SDS011;2294;51.818;8.484;2023-05-09T01:44:41;8.70;;;7.30;;
4563;SDS011;2294;51.818;8.484;2023-05-09T01:47:10;13.63;;;8.00;;
4563;SDS011;2294;51.818;8.484;2023-05-09T01:49:40;8.77;;;7.60;;
4563;SDS011;2294;51.818;8.484;2023-05-09T01:52:09;10.20;;;7.60;;
4563;SDS011;2294;51.818;8.484;2023-05-09T01:57:05;9.70;;;7.80;;
4563;SDS011;2294;51.818;8.484;2023-05-09T01:59:33;13.93;;;8.10;;
4563;SDS011;2294;51.818;8.484;2023-05-09T02:02:02;8.47;;;6.50;;
4563;SDS011;2294;51.818;8.484;2023-05-09T02:04:31;9.40;;;6.83;;
4563;SDS011;2294;51.818;8.484;2023-05-09T02:07:00;9.10;;;7.87;;
4563;SDS011;2294;51.818;8.484;2023-05-09T02:09:29;9.40;;;7.50;;
4563;SDS011;2294;51.818;8.484;2023-05-09T02:11:56;9.00;;;7.50;;
4563;SDS011;2294;51.818;8.484;2023-05-09T02:14:23;8.70;;;7.27;;
4563;SDS011;2294;51.818;8.484;2023-05-09T02:16:50;7.90;;;7.10;;
4563;SDS011;2294;51.818;8.484;2023-05-09T02:19:18;8.57;;;7.07;;
4563;SDS011;2294;51.818;8.484;2023-05-09T02:21:45;11.57;;;7.00;;
4563;SDS011;2294;51.818;8.484;2023-05-09T02:24:12;10.00;;;7.27;;
4563;SDS011;2294;51.818;8.484;2023-05-09T02:26:39;9.50;;;7.00;;
4563;SDS011;2294;51.818;8.484;2023-05-09T02:29:07;13.03;;;7.60;;
4563;SDS011;2294;51.818;8.484;2023-05-09T02:31:35;14.83;;;6.87;;
4563;SDS011;2294;51.818;8.484;2023-05-09T02:34:05;8.97;;;7.27;;
4563;SDS011;2294;51.818;8.484;2023-05-09T02:36:35;7.57;;;6.60;;
4563;SDS011;2294;51.818;8.484;2023-05-09T02:39:02;8.97;;;6.97;;
4563;SDS011;2294;51.818;8.484;2023-05-09T02:41:31;10.43;;;7.30;;
4563;SDS011;2294;51.818;8.484;2023-05-09T02:43:58;8.23;;;7.33;;
4563;SDS011;2294;51.818;8.484;2023-05-09T02:46:24;10.47;;;7.60;;
4563;SDS011;2294;51.818;8.484;2023-05-09T02:48:51;12.83;;;7.60;;
4563;SDS011;2294;51.818;8.484;2023-05-09T02:51:18;17.10;;;7.60;;
4563;SDS011;2294;51.818;8.484;2023-05-09T02:53:46;9.40;;;7.43;;
4563;SDS011;2294;51.818;8.484;2023-05-09T02:56:13;10.93;;;7.77;;
4563;SDS011;2294;51.818;8.484;2023-05-09T02:58:40;12.33;;;7.10;;
4563;SDS011;2294;51.818;8.484;2023-05-09T03:01:08;13.73;;;7.20;;
4563;SDS011;2294;51.818;8.484;2023-05-09T03:03:35;9.90;;;7.30;;
4563;SDS011;2294;51.818;8.484;2023-05-09T03:06:02;8.83;;;7.77;;
4563;SDS011;2294;51.818;8.484;2023-05-09T03:08:29;9.53;;;7.37;;
4563;SDS011;2294;51.818;8.484;2023-05-09T03:10:57;10.23;;;7.73;;
4563;SDS011;2294;51.818;8.484;2023-05-09T03:13:24;11.40;;;7.93;;
4563;SDS011;2294;51.818;8.484;2023-05-09T03:15:51;8.13;;;7.13;;
4563;SDS011;2294;51.818;8.484;2023-05-09T03:18:17;11.33;;;8.27;;
4563;SDS011;2294;51.818;8.484;2023-05-09T03:20:44;10.60;;;8.20;;
4563;SDS011;2294;51.818;8.484;2023-05-09T03:23:11;12.90;;;8.87;;
4563;SDS011;2294;51.818;8.484;2023-05-09T03:25:38;16.20;;;9.07;;
4563;SDS011;2294;51.818;8.484;2023-05-09T03:28:06;9.07;;;6.90;;
4563;SDS011;2294;51.818;8.484;2023-05-09T03:30:33;9.17;;;7.30;;
4563;SDS011;2294;51.818;8.484;2023-05-09T03:33:00;8.53;;;7.63;;
4563;SDS011;2294;51.818;8.484;2023-05-09T03:35:28;12.20;;;8.07;;
4563;SDS011;2294;51.818;8.484;2023-05-09T03:37:55;10.83;;;7.80;;
4563;SDS011;2294;51.818;8.484;2023-05-09T03:40:22;12.87;;;8.70;;
4563;SDS011;2294;51.818;8.484;2023-05-09T03:42:49;12.10;;;7.37;;
4563;SDS011;2294;51.818;8.484;2023-05-09T03:45:17;11.83;;;8.20;;
4563;SDS011;2294;51.818;8.484;2023-05-09T03:47:44;13.07;;;9.60;;
4563;SDS011;2294;51.818;8.484;2023-05-09T03:50:11;12.33;;;7.40;;
4563;SDS011;2294;51.818;8.484;2023-05-09T03:52:38;15.30;;;8.30;;
4563;SDS011;2294;51.818;8.484;2023-05-09T03:55:05;13.70;;;8.93;;
4563;SDS011;2294;51.818;8.484;2023-05-09T03:57:33;14.40;;;8.90;;
4563;SDS011;2294;51.818;8.484;2023-05-09T04:00:00;11.10;;;8.40;;
4563;SDS011;2294;51.818;8.484;2023-05-09T04:02:31;11.43;;;7.60;;
4563;SDS011;2294;51.818;8.484;2023-05-09T04:04:58;12.80;;;7.27;;
4563;SDS011;2294;51.818;8.484;2023-05-09T04:07:26;16.47;;;8.90;;
4563;SDS011;2294;51.818;8.484;2023-05-09T04:09:53;59.70;;;11.57;;
4563;SDS011;2294;51.818;8.484;2023-05-09T04:12:20;11.43;;;9.33;;
4563;SDS011;2294;51.818;8.484;2023-05-09T04:14:47;355.50;;;45.37;;
4563;SDS011;2294;51.818;8.484;2023-05-09T04:17:15;11.00;;;8.77;;
4563;SDS011;2294;51.818;8.484;2023-05-09T04:19:44;14.80;;;9.57;;
4563;SDS011;2294;51.818;8.484;2023-05-09T04:22:10;12.97;;;9.70;;
4563;SDS011;2294;51.818;8.484;2023-05-09T04:24:37;13.40;;;9.40;;
4563;SDS011;2294;51.818;8.484;2023-05-09T04:27:04;15.03;;;10.30;;
4563;SDS011;2294;51.818;8.484;2023-05-09T04:29:32;14.63;;;9.87;;
4563;SDS011;2294;51.818;8.484;2023-05-09T04:31:59;18.03;;;11.80;;
4563;SDS011;2294;51.818;8.484;2023-05-09T04:34:25;17.23;;;10.87;;
4563;SDS011;2294;51.818;8.484;2023-05-09T04:36:55;18.73;;;10.30;;
4563;SDS011;2294;51.818;8.484;2023-05-09T04:39:22;21.07;;;10.90;;
4563;SDS011;2294;51.818;8.484;2023-05-09T04:41:49;14.23;;;10.37;;
4563;SDS011;2294;51.818;8.484;2023-05-09T04:44:16;13.50;;;9.23;;
4563;SDS011;2294;51.818;8.484;2023-05-09T04:46:43;14.00;;;9.97;;
4563;SDS011;2294;51.818;8.484;2023-05-09T04:49:10;15.60;;;11.00;;
4563;SDS011;2294;51.818;8.484;2023-05-09T04:51:37;17.30;;;10.80;;
4563;SDS011;2294;51.818;8.484;2023-05-09T04:54:05;18.73;;;10.50;;
4563;SDS011;2294;51.818;8.484;2023-05-09T04:56:32;17.10;;;10.70;;
4563;SDS011;2294;51.818;8.484;2023-05-09T04:58:59;17.70;;;11.17;;
4563;SDS011;2294;51.818;8.484;2023-05-09T05:01:25;17.67;;;10.83;;
4563;SDS011;2294;51.818;8.484;2023-05-09T05:03:52;13.77;;;9.50;;
4563;SDS011;2294;51.818;8.484;2023-05-09T05:06:19;15.17;;;10.90;;
4563;SDS011;2294;51.818;8.484;2023-05-09T05:08:46;15.10;;;11.60;;
4563;SDS011;2294;51.818;8.484;2023-05-09T05:11:14;19.03;;;12.80;;
4563;SDS011;2294;51.818;8.484;2023-05-09T05:13:42;19.50;;;11.63;;
4563;SDS011;2294;51.818;8.484;2023-05-09T05:16:08;19.80;;;13.33;;
4563;SDS011;2294;51.818;8.484;2023-05-09T05:18:35;15.53;;;12.00;;
4563;SDS011;2294;51.818;8.484;2023-05-09T05:21:02;20.30;;;12.47;;
4563;SDS011;2294;51.818;8.484;2023-05-09T05:23:29;19.03;;;13.47;;
4563;SDS011;2294;51.818;8.484;2023-05-09T05:25:56;34.57;;;12.43;;
4563;SDS011;2294;51.818;8.484;2023-05-09T05:28:24;17.27;;;10.40;;
4563;SDS011;2294;51.818;8.484;2023-05-09T05:30:51;19.17;;;12.03;;
4563;SDS011;2294;51.818;8.484;2023-05-09T05:33:18;15.93;;;12.13;;
4563;SDS011;2294;51.818;8.484;2023-05-09T05:35:45;17.57;;;11.63;;
4563;SDS011;2294;51.818;8.484;2023-05-09T05:38:11;23.17;;;13.27;;
4563;SDS011;2294;51.818;8.484;2023-05-09T05:40:38;22.03;;;13.77;;
4563;SDS011;2294;51.818;8.484;2023-05-09T05:43:05;20.47;;;12.87;;
4563;SDS011;2294;51.818;8.484;2023-05-09T05:45:33;19.80;;;13.53;;
4563;SDS011;2294;51.818;8.484;2023-05-09T05:48:00;17.53;;;12.80;;
4563;SDS011;2294;51.818;8.484;2023-05-09T05:50:27;19.37;;;13.30;;
4563;SDS011;2294;51.818;8.484;2023-05-09T05:52:54;22.63;;;12.30;;
4563;SDS011;2294;51.818;8.484;2023-05-09T05:55:21;18.90;;;12.70;;
4563;SDS011;2294;51.818;8.484;2023-05-09T05:57:48;21.37;;;12.37;;
4563;SDS011;2294;51.818;8.484;2023-05-09T06:00:15;25.77;;;14.23;;
4563;SDS011;2294;51.818;8.484;2023-05-09T06:02:43;22.17;;;13.93;;
4563;SDS011;2294;51.818;8.484;2023-05-09T06:05:11;20.97;;;13.20;;
4563;SDS011;2294;51.818;8.484;2023-05-09T06:07:38;18.57;;;12.03;;
4563;SDS011;2294;51.818;8.484;2023-05-09T06:10:08;22.90;;;14.57;;
4563;SDS011;2294;51.818;8.484;2023-05-09T06:12:36;26.00;;;15.03;;
4563;SDS011;2294;51.818;8.484;2023-05-09T06:15:03;18.87;;;12.87;;
4563;SDS011;2294;51.818;8.484;2023-05-09T06:17:30;24.30;;;14.30;;
4563;SDS011;2294;51.818;8.484;2023-05-09T06:19:59;22.20;;;15.40;;
4563;SDS011;2294;51.818;8.484;2023-05-09T06:22:26;21.20;;;14.17;;
4563;SDS011;2294;51.818;8.484;2023-05-09T06:24:53;18.60;;;12.70;;
4563;SDS011;2294;51.818;8.484;2023-05-09T06:27:20;22.67;;;15.27;;
4563;SDS011;2294;51.818;8.484;2023-05-09T06:29:47;18.93;;;13.63;;
4563;SDS011;2294;51.818;8.484;2023-05-09T06:32:14;31.90;;;15.30;;
4563;SDS011;2294;51.818;8.484;2023-05-09T06:34:42;27.10;;;14.70;;
4563;SDS011;2294;51.818;8.484;2023-05-09T06:37:11;21.87;;;15.30;;
4563;SDS011;2294;51.818;8.484;2023-05-09T06:39:38;20.30;;;13.20;;
4563;SDS011;2294;51.818;8.484;2023-05-09T06:42:05;24.80;;;15.43;;
4563;SDS011;2294;51.818;8.484;2023-05-09T06:44:32;26.50;;;16.33;;
4563;SDS011;2294;51.818;8.484;2023-05-09T06:46:59;24.47;;;15.30;;
4563;SDS011;2294;51.818;8.484;2023-05-09T06:49:26;24.17;;;15.67;;
4563;SDS011;2294;51.818;8.484;2023-05-09T06:51:53;23.97;;;15.10;;
4563;SDS011;2294;51.818;8.484;2023-05-09T06:54:21;24.00;;;15.37;;
4563;SDS011;2294;51.818;8.484;2023-05-09T06:56:48;22.47;;;15.93;;
4563;SDS011;2294;51.818;8.484;2023-05-09T06:59:15;28.33;;;15.67;;
4563;SDS011;2294;51.818;8.484;2023-05-09T07:01:42;22.13;;;15.10;;
4563;SDS011;2294;51.818;8.484;2023-05-09T07:04:09;22.33;;;15.43;;
4563;SDS011;2294;51.818;8.484;2023-05-09T07:06:36;24.93;;;15.90;;
4563;SDS011;2294;51.818;8.484;2023-05-09T07:09:02;20.27;;;14.07;;
4563;SDS011;2294;51.818;8.484;2023-05-09T07:11:34;21.87;;;14.57;;
4563;SDS011;2294;51.818;8.484;2023-05-09T07:14:01;18.53;;;13.70;;
4563;SDS011;2294;51.818;8.484;2023-05-09T07:16:28;21.30;;;13.87;;
4563;SDS011;2294;51.818;8.484;2023-05-09T07:18:54;19.10;;;14.03;;
4563;SDS011;2294;51.818;8.484;2023-05-09T07:21:22;23.83;;;14.40;;
4563;SDS011;2294;51.818;8.484;2023-05-09T07:23:48;21.30;;;14.20;;
4563;SDS011;2294;51.818;8.484;2023-05-09T07:26:15;21.93;;;13.90;;
4563;SDS011;2294;51.818;8.484;2023-05-09T07:28:43;23.20;;;14.70;;
4563;SDS011;2294;51.818;8.484;2023-05-09T07:31:10;23.47;;;13.80;;
4563;SDS011;2294;51.818;8.484;2023-05-09T07:33:37;19.07;;;13.70;;
4563;SDS011;2294;51.818;8.484;2023-05-09T07:36:04;18.60;;;12.27;;
4563;SDS011;2294;51.818;8.484;2023-05-09T07:38:31;18.60;;;13.20;;
4563;SDS011;2294;51.818;8.484;2023-05-09T07:40:58;16.70;;;12.70;;
4563;SDS011;2294;51.818;8.484;2023-05-09T07:43:25;17.70;;;13.30;;
4563;SDS011;2294;51.818;8.484;2023-05-09T07:45:53;15.17;;;12.43;;
4563;SDS011;2294;51.818;8.484;2023-05-09T07:48:20;16.50;;;12.60;;
4563;SDS011;2294;51.818;8.484;2023-05-09T07:50:47;17.27;;;12.73;;
4563;SDS011;2294;51.818;8.484;2023-05-09T07:53:14;17.37;;;12.33;;
4563;SDS011;2294;51.818;8.484;2023-05-09T07:55:41;15.50;;;11.07;;
4563;SDS011;2294;51.818;8.484;2023-05-09T07:58:08;20.93;;;13.50;;
4563;SDS011;2294;51.818;8.484;2023-05-09T08:00:35;20.07;;;13.20;;
4563;SDS011;2294;51.818;8.484;2023-05-09T08:03:03;17.73;;;11.77;;
4563;SDS011;2294;51.818;8.484;2023-05-09T08:05:30;19.57;;;12.40;;
4563;SDS011;2294;51.818;8.484;2023-05-09T08:07:57;15.80;;;12.20;;
4563;SDS011;2294;51.818;8.484;2023-05-09T08:10:24;16.20;;;11.80;;
4563;SDS011;2294;51.818;8.484;2023-05-09T08:12:54;17.90;;;13.07;;
4563;SDS011;2294;51.818;8.484;2023-05-09T08:15:21;19.70;;;13.50;;
4563;SDS011;2294;51.818;8.484;2023-05-09T08:17:48;20.33;;;13.33;;
4563;SDS011;2294;51.818;8.484;2023-05-09T08:20:17;20.90;;;14.47;;
4563;SDS011;2294;51.818;8.484;2023-05-09T08:22:44;20.13;;;14.17;;
4563;SDS011;2294;51.818;8.484;2023-05-09T08:25:10;19.30;;;13.20;;
4563;SDS011;2294;51.818;8.484;2023-05-09T08:27:40;26.53;;;13.70;;
4563;SDS011;2294;51.818;8.484;2023-05-09T08:30:07;20.67;;;12.23;;
4563;SDS011;2294;51.818;8.484;2023-05-09T08:32:37;20.53;;;11.60;;
4563;SDS011;2294;51.818;8.484;2023-05-09T08:35:04;18.77;;;13.47;;
4563;SDS011;2294;51.818;8.484;2023-05-09T08:37:34;19.77;;;12.87;;
4563;SDS011;2294;51.818;8.484;2023-05-09T08:40:01;17.70;;;11.63;;
4563;SDS011;2294;51.818;8.484;2023-05-09T08:42:30;22.30;;;13.00;;
4563;SDS011;2294;51.818;8.484;2023-05-09T08:44:57;21.80;;;12.07;;
4563;SDS011;2294;51.818;8.484;2023-05-09T08:47:26;14.13;;;10.90;;
4563;SDS011;2294;51.818;8.484;2023-05-09T08:49:53;16.83;;;11.60;;
4563;SDS011;2294;51.818;8.484;2023-05-09T08:52:20;18.20;;;11.70;;
4563;SDS011;2294;51.818;8.484;2023-05-09T08:54:49;17.10;;;12.17;;
4563;SDS011;2294;51.818;8.484;2023-05-09T08:57:17;16.77;;;11.00;;
4563;SDS011;2294;51.818;8.484;2023-05-09T08:59:44;18.40;;;13.27;;
4563;SDS011;2294;51.818;8.484;2023-05-09T09:02:11;14.53;;;11.60;;
4563;SDS011;2294;51.818;8.484;2023-05-09T09:04:39;15.53;;;11.20;;
4563;SDS011;2294;51.818;8.484;2023-05-09T09:07:06;16.87;;;11.87;;
4563;SDS011;2294;51.818;8.484;2023-05-09T09:09:34;16.13;;;11.20;;
4563;SDS011;2294;51.818;8.484;2023-05-09T09:12:04;18.63;;;12.90;;
4563;SDS011;2294;51.818;8.484;2023-05-09T09:14:32;18.90;;;12.60;;
4563;SDS011;2294;51.818;8.484;2023-05-09T09:17:03;26.43;;;11.37;;
4563;SDS011;2294;51.818;8.484;2023-05-09T09:19:32;16.40;;;11.47;;
4563;SDS011;2294;51.818;8.484;2023-05-09T09:22:01;18.63;;;12.13;;
4563;SDS011;2294;51.818;8.484;2023-05-09T09:24:29;16.00;;;11.70;;
4563;SDS011;2294;51.818;8.484;2023-05-09T09:26:56;13.13;;;11.03;;
4563;SDS011;2294;51.818;8.484;2023-05-09T09:29:24;18.43;;;11.90;;
4563;SDS011;2294;51.818;8.484;2023-05-09T09:31:52;14.33;;;11.00;;
4563;SDS011;2294;51.818;8.484;2023-05-09T09:34:20;16.27;;;11.77;;
4563;SDS011;2294;51.818;8.484;2023-05-09T09:36:48;13.87;;;10.97;;
4563;SDS011;2294;51.818;8.484;2023-05-09T09:39:15;16.07;;;12.20;;
4563;SDS011;2294;51.818;8.484;2023-05-09T09:41:42;13.30;;;10.23;;
4563;SDS011;2294;51.818;8.484;2023-05-09T09:44:10;14.20;;;10.87;;
4563;SDS011;2294;51.818;8.484;2023-05-09T09:46:43;15.17;;;11.03;;
4563;SDS011;2294;51.818;8.484;2023-05-09T09:49:10;14.57;;;11.40;;
4563;SDS011;2294;51.818;8.484;2023-05-09T09:51:38;16.30;;;11.63;;
4563;SDS011;2294;51.818;8.484;2023-05-09T09:54:05;13.40;;;10.20;;
4563;SDS011;2294;51.818;8.484;2023-05-09T09:56:40;14.80;;;10.63;;
4563;SDS011;2294;51.818;8.484;2023-05-09T09:59:08;16.10;;;11.00;;
4563;SDS011;2294;51.818;8.484;2023-05-09T10:01:43;13.50;;;11.53;;
4563;SDS011;2294;51.818;8.484;2023-05-09T10:04:20;19.07;;;11.77;;
4563;SDS011;2294;51.818;8.484;2023-05-09T10:06:50;12.63;;;9.90;;
4563;SDS011;2294;51.818;8.484;2023-05-09T10:09:19;12.30;;;9.70;;
4563;SDS011;2294;51.818;8.484;2023-05-09T10:11:46;11.43;;;9.97;;
4563;SDS011;2294;51.818;8.484;2023-05-09T10:14:15;12.60;;;8.83;;
4563;SDS011;2294;51.818;8.484;2023-05-09T10:16:45;10.53;;;8.53;;
4563;SDS011;2294;51.818;8.484;2023-05-09T10:19:14;10.97;;;8.60;;
4563;SDS011;2294;51.818;8.484;2023-05-09T10:21:43;10.10;;;7.90;;
4563;SDS011;2294;51.818;8.484;2023-05-09T10:24:15;9.77;;;7.50;;
4563;SDS011;2294;51.818;8.484;2023-05-09T10:26:43;11.63;;;7.70;;
4563;SDS011;2294;51.818;8.484;2023-05-09T10:29:14;9.97;;;7.60;;
4563;SDS011;2294;51.818;8.484;2023-05-09T10:31:49;14.67;;;7.73;;
4563;SDS011;2294;51.818;8.484;2023-05-09T10:34:20;9.53;;;7.13;;
4563;SDS011;2294;51.818;8.484;2023-05-09T10:36:50;9.30;;;7.97;;
4563;SDS011;2294;51.818;8.484;2023-05-09T10:39:17;7.47;;;6.70;;
4563;SDS011;2294;51.818;8.484;2023-05-09T10:41:44;8.83;;;6.80;;
4563;SDS011;2294;51.818;8.484;2023-05-09T10:44:13;8.30;;;6.90;;
4563;SDS011;2294;51.818;8.484;2023-05-09T10:46:41;9.00;;;6.97;;
4563;SDS011;2294;51.818;8.484;2023-05-09T10:49:11;8.07;;;6.27;;
4563;SDS011;2294;51.818;8.484;2023-05-09T10:51:38;12.97;;;7.53;;
4563;SDS011;2294;51.818;8.484;2023-05-09T10:54:12;12.37;;;7.77;;
4563;SDS011;2294;51.818;8.484;2023-05-09T10:56:40;8.87;;;7.17;;
4563;SDS011;2294;51.818;8.484;2023-05-09T10:59:16;12.80;;;6.80;;
4563;SDS011;2294;51.818;8.484;2023-05-09T11:01:59;9.07;;;6.47;;
4563;SDS011;2294;51.818;8.484;2023-05-09T11:04:28;9.60;;;6.07;;
4563;SDS011;2294;51.818;8.484;2023-05-09T11:06:56;19.30;;;6.90;;
4563;SDS011;2294;51.818;8.484;2023-05-09T11:09:24;8.83;;;6.67;;
4563;SDS011;2294;51.818;8.484;2023-05-09T11:11:53;10.93;;;7.03;;
4563;SDS011;2294;51.818;8.484;2023-05-09T11:14:28;7.33;;;5.97;;
4563;SDS011;2294;51.818;8.484;2023-05-09T11:16:56;7.77;;;6.90;;
4563;SDS011;2294;51.818;8.484;2023-05-09T11:19:34;10.10;;;7.60;;
4563;SDS011;2294;51.818;8.484;2023-05-09T11:22:12;8.53;;;6.73;;
4563;SDS011;2294;51.818;8.484;2023-05-09T11:24:43;6.80;;;6.10;;
4563;SDS011;2294;51.818;8.484;2023-05-09T11:27:14;7.80;;;6.10;;
4563;SDS011;2294;51.818;8.484;2023-05-09T11:29:44;10.83;;;7.00;;
4563;SDS011;2294;51.818;8.484;2023-05-09T11:32:15;9.20;;;7.30;;
4563;SDS011;2294;51.818;8.484;2023-05-09T11:34:43;7.57;;;6.77;;
4563;SDS011;2294;51.818;8.484;2023-05-09T11:37:12;8.90;;;7.07;;
4563;SDS011;2294;51.818;8.484;2023-05-09T11:39:57;9.30;;;7.20;;
4563;SDS011;2294;51.818;8.484;2023-05-09T11:42:26;10.37;;;7.10;;
4563;SDS011;2294;51.818;8.484;2023-05-09T11:44:54;10.23;;;6.70;;
4563;SDS011;2294;51.818;8.484;2023-05-09T11:47:22;8.60;;;7.00;;
4563;SDS011;2294;51.818;8.484;2023-05-09T11:49:50;7.10;;;5.80;;
4563;SDS011;2294;51.818;8.484;2023-05-09T11:52:17;7.37;;;5.70;;
4563;SDS011;2294;51.818;8.484;2023-05-09T11:54:45;7.23;;;5.43;;
4563;SDS011;2294;51.818;8.484;2023-05-09T11:57:13;9.17;;;5.70;;
4563;SDS011;2294;51.818;8.484;2023-05-09T11:59:42;10.60;;;5.93;;
4563;SDS011;2294;51.818;8.484;2023-05-09T12:02:09;6.80;;;5.50;;
4563;SDS011;2294;51.818;8.484;2023-05-09T12:04:37;7.50;;;6.00;;
4563;SDS011;2294;51.818;8.484;2023-05-09T12:07:05;5.90;;;5.30;;
4563;SDS011;2294;51.818;8.484;2023-05-09T12:09:32;8.93;;;6.47;;
4563;SDS011;2294;51.818;8.484;2023-05-09T12:12:07;7.00;;;5.10;;
4563;SDS011;2294;51.818;8.484;2023-05-09T12:14:36;5.73;;;4.67;;
4563;SDS011;2294;51.818;8.484;2023-05-09T12:17:03;5.90;;;5.13;;
4563;SDS011;2294;51.818;8.484;2023-05-09T12:19:30;7.47;;;5.00;;
4563;SDS011;2294;51.818;8.484;2023-05-09T12:21:57;6.43;;;4.60;;
4563;SDS011;2294;51.818;8.484;2023-05-09T12:24:26;6.93;;;4.97;;
4563;SDS011;2294;51.818;8.484;2023-05-09T12:26:54;6.73;;;5.13;;
4563;SDS011;2294;51.818;8.484;2023-05-09T12:29:22;6.67;;;4.63;;
4563;SDS011;2294;51.818;8.484;2023-05-09T12:31:51;5.60;;;5.10;;
4563;SDS011;2294;51.818;8.484;2023-05-09T12:34:18;8.90;;;5.90;;
4563;SDS011;2294;51.818;8.484;2023-05-09T12:36:46;6.27;;;5.53;;
4563;SDS011;2294;51.818;8.484;2023-05-09T12:39:15;7.03;;;5.23;;
4563;SDS011;2294;51.818;8.484;2023-05-09T12:41:47;7.47;;;5.60;;
4563;SDS011;2294;51.818;8.484;2023-05-09T12:44:18;6.07;;;5.40;;
4563;SDS011;2294;51.818;8.484;2023-05-09T12:46:55;7.60;;;5.40;;
4563;SDS011;2294;51.818;8.484;2023-05-09T12:49:23;7.70;;;6.10;;
4563;SDS011;2294;51.818;8.484;2023-05-09T12:51:51;7.07;;;5.93;;
4563;SDS011;2294;51.818;8.484;2023-05-09T12:54:19;6.13;;;5.53;;
4563;SDS011;2294;51.818;8.484;2023-05-09T12:56:48;8.30;;;6.17;;
4563;SDS011;2294;51.818;8.484;2023-05-09T12:59:20;6.60;;;5.40;;
4563;SDS011;2294;51.818;8.484;2023-05-09T13:01:51;6.33;;;5.00;;
4563;SDS011;2294;51.818;8.484;2023-05-09T13:04:19;6.40;;;5.13;;
4563;SDS011;2294;51.818;8.484;2023-05-09T13:06:47;7.35;;;4.90;;
4563;SDS011;2294;51.818;8.484;2023-05-09T13:09:16;6.90;;;4.90;;
4563;SDS011;2294;51.818;8.484;2023-05-09T13:11:43;8.03;;;5.77;;
4563;SDS011;2294;51.818;8.484;2023-05-09T13:14:13;6.17;;;4.80;;
4563;SDS011;2294;51.818;8.484;2023-05-09T13:16:40;6.23;;;4.80;;
4563;SDS011;2294;51.818;8.484;2023-05-09T13:19:07;6.80;;;5.30;;
4563;SDS011;2294;51.818;8.484;2023-05-09T13:21:34;6.17;;;5.00;;
4563;SDS011;2294;51.818;8.484;2023-05-09T13:24:01;7.30;;;5.33;;
4563;SDS011;2294;51.818;8.484;2023-05-09T13:26:28;6.13;;;5.50;;
4563;SDS011;2294;51.818;8.484;2023-05-09T13:28:55;8.00;;;5.23;;
4563;SDS011;2294;51.818;8.484;2023-05-09T13:31:24;6.37;;;5.23;;
4563;SDS011;2294;51.818;8.484;2023-05-09T13:33:51;6.60;;;5.20;;
4563;SDS011;2294;51.818;8.484;2023-05-09T13:36:18;6.17;;;5.17;;
4563;SDS011;2294;51.818;8.484;2023-05-09T13:38:45;6.97;;;5.20;;
4563;SDS011;2294;51.818;8.484;2023-05-09T13:41:12;7.20;;;5.17;;
4563;SDS011;2294;51.818;8.484;2023-05-09T13:43:44;6.63;;;4.77;;
4563;SDS011;2294;51.818;8.484;2023-05-09T13:46:11;6.00;;;4.90;;
4563;SDS011;2294;51.818;8.484;2023-05-09T13:48:39;5.60;;;5.07;;
4563;SDS011;2294;51.818;8.484;2023-05-09T13:51:06;7.90;;;5.13;;
4563;SDS011;2294;51.818;8.484;2023-05-09T13:53:34;7.63;;;4.37;;
4563;SDS011;2294;51.818;8.484;2023-05-09T13:56:01;7.70;;;4.77;;
4563;SDS011;2294;51.818;8.484;2023-05-09T13:58:28;4.50;;;4.10;;
4563;SDS011;2294;51.818;8.484;2023-05-09T14:00:54;5.60;;;5.00;;
4563;SDS011;2294;51.818;8.484;2023-05-09T14:03:21;5.10;;;4.37;;
4563;SDS011;2294;51.818;8.484;2023-05-09T14:05:49;5.03;;;4.23;;
4563;SDS011;2294;51.818;8.484;2023-05-09T14:08:16;4.60;;;4.03;;
4563;SDS011;2294;51.818;8.484;2023-05-09T14:10:45;4.60;;;3.80;;
4563;SDS011;2294;51.818;8.484;2023-05-09T14:13:12;5.43;;;4.77;;
4563;SDS011;2294;51.818;8.484;2023-05-09T14:15:39;5.80;;;4.37;;
4563;SDS011;2294;51.818;8.484;2023-05-09T14:18:06;6.30;;;4.60;;
4563;SDS011;2294;51.818;8.484;2023-05-09T14:20:33;5.43;;;4.87;;
4563;SDS011;2294;51.818;8.484;2023-05-09T14:23:02;5.03;;;3.90;;
4563;SDS011;2294;51.818;8.484;2023-05-09T14:25:29;8.10;;;4.27;;
4563;SDS011;2294;51.818;8.484;2023-05-09T14:27:56;6.63;;;4.67;;
4563;SDS011;2294;51.818;8.484;2023-05-09T14:30:24;8.10;;;3.80;;
4563;SDS011;2294;51.818;8.484;2023-05-09T14:32:51;5.30;;;4.80;;
4563;SDS011;2294;51.818;8.484;2023-05-09T14:35:18;5.20;;;4.70;;
4563;SDS011;2294;51.818;8.484;2023-05-09T14:37:45;5.17;;;4.30;;
4563;SDS011;2294;51.818;8.484;2023-05-09T14:40:13;5.23;;;4.73;;
4563;SDS011;2294;51.818;8.484;2023-05-09T14:42:40;4.47;;;3.97;;
4563;SDS011;2294;51.818;8.484;2023-05-09T14:45:08;7.00;;;4.40;;
4563;SDS011;2294;51.818;8.484;2023-05-09T14:47:36;7.33;;;4.20;;
4563;SDS011;2294;51.818;8.484;2023-05-09T14:50:04;5.50;;;4.27;;
4563;SDS011;2294;51.818;8.484;2023-05-09T14:52:34;6.83;;;4.00;;
4563;SDS011;2294;51.818;8.484;2023-05-09T14:55:01;3.80;;;3.50;;
4563;SDS011;2294;51.818;8.484;2023-05-09T14:57:29;6.17;;;4.90;;
4563;SDS011;2294;51.818;8.484;2023-05-09T14:59:56;6.10;;;3.80;;
4563;SDS011;2294;51.818;8.484;2023-05-09T15:02:23;4.50;;;4.10;;
4563;SDS011;2294;51.818;8.484;2023-05-09T15:04:50;9.00;;;4.53;;
4563;SDS011;2294;51.818;8.484;2023-05-09T15:07:17;5.77;;;4.10;;
4563;SDS011;2294;51.818;8.484;2023-05-09T15:09:44;5.60;;;4.67;;
4563;SDS011;2294;51.818;8.484;2023-05-09T15:12:11;5.03;;;4.53;;
4563;SDS011;2294;51.818;8.484;2023-05-09T15:14:39;9.97;;;5.17;;